Time;durP1;ratioP1;P1;durP2;ratioP2;P2;SDS_P1;SDS_P2;PMS_P1;PMS_P2;Temp;Humidity;BMP_temperature;BMP_pressure;BME280_temperature;BME280_humidity;BME280_pressure;Samples;Min_cycle;Max_cycle;Signal;HPM_P1;HPM_P2
2022/09/15 00:00:44;;;;;;;1.30;0.98;;;13.60;99.90;;;;;;5000314;28;20033;-80
2022/09/15 00:03:10;;;;;;;1.80;1.45;;;13.40;99.90;;;;;;4996794;28;20026;-79
2022/09/15 00:05:35;;;;;;;4.72;1.55;;;13.30;99.90;;;;;;4995695;28;20097;-80
2022/09/15 00:08:01;;;;;;;3.38;1.70;;;13.30;99.90;;;;;;4999539;28;20029;-80
2022/09/15 00:10:27;;;;;;;1.40;1.30;;;13.30;99.90;;;;;;4991288;28;20022;-80
2022/09/15 00:12:54;;;;;;;1.30;1.20;;;13.30;99.90;;;;;;4997313;28;20029;-79
2022/09/15 00:15:19;;;;;;;3.67;1.67;;;13.40;99.90;;;;;;4998861;28;20084;-79
2022/09/15 00:17:48;;;;;;;3.55;1.10;;;13.50;99.90;;;;;;4994589;28;20121;-79
2022/09/15 00:20:15;;;;;;;1.48;1.23;;;13.60;99.90;;;;;;4998095;28;20061;-79
2022/09/15 00:22:41;;;;;;;2.67;1.27;;;13.70;99.90;;;;;;4993141;28;20711;-79
2022/09/15 00:25:06;;;;;;;1.95;1.67;;;13.70;99.90;;;;;;4980954;28;20030;-79
2022/09/15 00:27:33;;;;;;;2.13;1.40;;;13.80;99.90;;;;;;4994514;28;20465;-79
2022/09/15 00:29:58;;;;;;;1.08;0.98;;;13.80;99.90;;;;;;4997506;28;20108;-80
2022/09/15 00:32:29;;;;;;;1.65;1.10;;;13.80;99.90;;;;;;4992375;28;20121;-79
2022/09/15 00:34:55;;;;;;;1.20;1.10;;;13.70;99.90;;;;;;4996208;28;20061;-79
2022/09/15 00:37:21;;;;;;;1.92;1.27;;;13.60;99.90;;;;;;5003208;28;20041;-80
2022/09/15 00:39:47;;;;;;;4.45;1.85;;;13.40;99.90;;;;;;4999297;28;20057;-80
2022/09/15 00:42:15;;;;;;;2.60;1.20;;;13.40;99.90;;;;;;4997673;28;20033;-78
2022/09/15 00:44:54;;;;;;;1.33;1.10;;;13.30;99.90;;;;;;4997556;28;20485;-80
2022/09/15 00:47:23;;;;;;;1.63;1.05;;;13.20;99.90;;;;;;5001286;28;20022;-79
2022/09/15 00:50:00;;;;;;;1.90;1.35;;;13.20;99.90;;;;;;5005131;28;20567;-78
2022/09/15 00:52:36;;;;;;;2.42;0.93;;;13.20;99.90;;;;;;5003020;28;20587;-79
2022/09/15 00:55:32;;;;;;;1.95;1.10;;;13.10;99.90;;;;;;4994990;28;20018;-79
2022/09/15 00:58:05;;;;;;;1.42;1.15;;;13.00;99.90;;;;;;5006118;28;20045;-79
2022/09/15 01:00:32;;;;;;;1.70;0.88;;;13.00;99.90;;;;;;4995577;28;20037;-79
2022/09/15 01:02:58;;;;;;;1.20;1.10;;;13.00;99.90;;;;;;5000822;28;20466;-79
2022/09/15 01:05:28;;;;;;;1.48;1.27;;;12.90;99.90;;;;;;4998808;28;20040;-79
2022/09/15 01:08:05;;;;;;;2.15;1.05;;;12.90;99.90;;;;;;4995948;28;20034;-79
2022/09/15 01:10:37;;;;;;;3.20;1.42;;;12.90;99.90;;;;;;4995238;28;20033;-80
2022/09/15 01:13:13;;;;;;;1.02;0.90;;;12.90;99.90;;;;;;4998420;28;20392;-80
2022/09/15 01:15:47;;;;;;;2.60;1.25;;;12.70;99.90;;;;;;4999639;28;20292;-80
2022/09/15 01:18:29;;;;;;;2.03;1.30;;;12.70;99.90;;;;;;4999069;28;20030;-80
2022/09/15 01:21:17;;;;;;;1.42;1.15;;;12.70;99.90;;;;;;4997845;28;20121;-80
2022/09/15 01:24:08;;;;;;;1.83;1.20;;;12.70;99.90;;;;;;5000259;28;20034;-80
2022/09/15 01:26:44;;;;;;;4.35;1.70;;;12.70;99.90;;;;;;5001029;28;20034;-80
2022/09/15 01:29:44;;;;;;;5.00;1.95;;;12.60;99.90;;;;;;4996343;28;20108;-80
2022/09/15 01:35:23;;;;;;;1.65;1.15;;;12.60;99.90;;;;;;4994237;28;20025;-80
2022/09/15 01:37:59;;;;;;;2.72;1.58;;;12.80;99.90;;;;;;4989754;28;20038;-79
2022/09/15 01:40:30;;;;;;;1.30;0.95;;;12.60;99.90;;;;;;5000428;28;20038;-78
2022/09/15 01:42:56;;;;;;;2.53;1.40;;;12.50;99.90;;;;;;5000783;28;20026;-79
2022/09/15 01:45:27;;;;;;;2.58;0.98;;;12.50;99.90;;;;;;4999685;28;20291;-80
2022/09/15 01:47:55;;;;;;;2.45;1.50;;;12.40;99.90;;;;;;4988920;28;20033;-80
2022/09/15 01:50:44;;;;;;;1.35;1.17;;;12.30;99.90;;;;;;5003080;28;20128;-80
2022/09/15 01:53:17;;;;;;;1.95;1.55;;;12.30;99.90;;;;;;4990325;28;20022;-80
2022/09/15 01:56:10;;;;;;;1.85;1.27;;;12.40;99.90;;;;;;4998844;28;20029;-80
2022/09/15 01:58:38;;;;;;;1.55;1.20;;;12.50;99.90;;;;;;4995632;28;20424;-80
2022/09/15 02:01:30;;;;;;;2.15;1.38;;;12.60;99.90;;;;;;4994865;28;20030;-80
2022/09/15 02:04:14;;;;;;;2.92;1.15;;;12.60;99.90;;;;;;4994227;28;20389;-80
2022/09/15 02:06:52;;;;;;;2.60;1.40;;;12.60;99.90;;;;;;4996380;28;20026;-79
2022/09/15 02:09:28;;;;;;;1.52;1.13;;;12.50;99.90;;;;;;4984954;28;20028;-80
2022/09/15 02:12:42;;;;;;;6.07;1.50;;;12.50;99.90;;;;;;5002088;28;20033;-79
2022/09/15 02:15:15;;;;;;;1.58;1.48;;;12.40;99.90;;;;;;4930882;29;20151;-80
2022/09/15 02:17:49;;;;;;;2.63;1.50;;;12.40;99.90;;;;;;4995539;28;20073;-79
2022/09/15 02:20:38;;;;;;;1.65;1.02;;;12.40;99.90;;;;;;4999759;28;20342;-81
2022/09/15 02:23:18;;;;;;;1.50;1.38;;;12.40;99.90;;;;;;4998011;28;20048;-80
2022/09/15 02:25:50;;;;;;;2.15;1.23;;;12.40;99.90;;;;;;5000230;28;20564;-80
2022/09/15 02:28:19;;;;;;;1.70;1.08;;;12.20;99.90;;;;;;5002978;28;20029;-80
2022/09/15 02:30:46;;;;;;;2.00;1.38;;;12.10;99.90;;;;;;4998592;28;20428;-80
2022/09/15 02:33:22;;;;;;;1.55;1.15;;;12.10;99.90;;;;;;4999878;28;20038;-79
2022/09/15 02:35:51;;;;;;;2.15;1.23;;;12.00;99.90;;;;;;4998417;28;20982;-80
2022/09/15 02:38:18;;;;;;;2.72;1.77;;;11.90;99.90;;;;;;4999941;28;20033;-79
2022/09/15 02:40:45;;;;;;;2.45;1.65;;;11.90;99.90;;;;;;4997770;28;20030;-80
2022/09/15 02:43:13;;;;;;;1.60;1.10;;;11.90;99.90;;;;;;5004191;28;20029;-79
2022/09/15 02:45:41;;;;;;;3.35;1.30;;;11.80;99.90;;;;;;5004359;28;20394;-79
2022/09/15 02:48:08;;;;;;;1.50;1.40;;;11.90;99.90;;;;;;5002210;28;20034;-80
2022/09/15 02:50:34;;;;;;;4.38;1.30;;;12.10;99.90;;;;;;5001622;28;20026;-80
2022/09/15 02:53:00;;;;;;;1.60;1.38;;;12.20;99.90;;;;;;5003907;28;20030;-80
2022/09/15 02:55:27;;;;;;;3.47;1.60;;;12.20;99.90;;;;;;5001566;28;20522;-80
2022/09/15 02:57:54;;;;;;;1.70;1.30;;;12.20;99.90;;;;;;5001709;28;20056;-80
2022/09/15 03:00:23;;;;;;;4.35;1.27;;;12.20;99.90;;;;;;4998148;28;20390;-79
2022/09/15 03:02:51;;;;;;;2.72;1.40;;;12.00;99.90;;;;;;4994472;28;20077;-80
2022/09/15 03:05:35;;;;;;;2.03;1.52;;;11.90;99.90;;;;;;4987887;28;20521;-80
2022/09/15 03:08:01;;;;;;;2.25;1.50;;;11.80;99.90;;;;;;5001193;28;20476;-80
2022/09/15 03:10:27;;;;;;;2.88;1.73;;;11.80;99.90;;;;;;5002374;28;20080;-79
2022/09/15 03:12:53;;;;;;;2.78;1.40;;;11.70;99.90;;;;;;4991277;28;20034;-80
2022/09/15 03:15:22;;;;;;;1.23;1.00;;;11.70;99.90;;;;;;5000340;28;20057;-79
2022/09/15 03:17:51;;;;;;;5.00;1.80;;;11.60;99.90;;;;;;4999942;28;20103;-78
2022/09/15 03:20:27;;;;;;;1.15;1.02;;;11.70;99.90;;;;;;5000107;28;20599;-82
2022/09/15 03:22:53;;;;;;;1.60;1.17;;;11.60;99.90;;;;;;4998220;28;20036;-77
2022/09/15 03:25:18;;;;;;;3.10;1.52;;;11.60;99.90;;;;;;5003381;28;21142;-77
2022/09/15 03:27:44;;;;;;;3.28;1.38;;;11.70;99.90;;;;;;5003184;28;20480;-76
2022/09/15 03:30:11;;;;;;;1.50;1.23;;;11.50;99.90;;;;;;4997497;28;20084;-77
2022/09/15 03:32:36;;;;;;;1.90;1.20;;;11.30;99.90;;;;;;4999207;28;20060;-76
2022/09/15 03:35:03;;;;;;;4.32;1.40;;;11.30;99.90;;;;;;5002835;28;20034;-78
2022/09/15 03:37:28;;;;;;;2.20;1.30;;;11.30;99.90;;;;;;5001146;28;20068;-77
2022/09/15 03:39:54;;;;;;;1.23;0.93;;;11.20;99.90;;;;;;5001649;28;20472;-78
2022/09/15 03:42:20;;;;;;;1.58;1.00;;;11.20;99.90;;;;;;4998496;28;20037;-77
2022/09/15 03:44:46;;;;;;;1.02;0.93;;;11.20;99.90;;;;;;4998653;28;20021;-77
2022/09/15 03:47:11;;;;;;;1.70;1.05;;;11.20;99.90;;;;;;5004497;28;20030;-78
2022/09/15 03:49:37;;;;;;;2.38;1.50;;;11.20;99.90;;;;;;5004943;28;20033;-77
2022/09/15 03:52:03;;;;;;;3.10;1.40;;;11.20;99.90;;;;;;5003770;28;20031;-78
2022/09/15 03:54:28;;;;;;;1.42;1.20;;;11.20;99.90;;;;;;4996662;28;20034;-79
2022/09/15 03:56:54;;;;;;;4.20;1.30;;;11.20;99.90;;;;;;5003389;28;20097;-78
2022/09/15 03:59:20;;;;;;;2.63;1.25;;;11.20;99.90;;;;;;5004612;28;20024;-79
2022/09/15 04:01:47;;;;;;;1.25;1.10;;;11.30;99.90;;;;;;5005210;28;20117;-77
2022/09/15 04:04:13;;;;;;;2.40;1.55;;;11.40;99.90;;;;;;5001035;28;20076;-78
2022/09/15 04:06:39;;;;;;;1.42;1.02;;;11.30;99.90;;;;;;5003704;28;20385;-78
2022/09/15 04:09:05;;;;;;;2.00;1.40;;;11.40;99.90;;;;;;5004758;28;20260;-78
2022/09/15 04:11:30;;;;;;;2.40;1.23;;;11.40;99.90;;;;;;5004454;28;20131;-78
2022/09/15 04:13:56;;;;;;;2.00;1.38;;;11.30;99.90;;;;;;5006119;28;20026;-79
2022/09/15 04:16:24;;;;;;;1.70;1.25;;;11.30;99.90;;;;;;5005695;28;20030;-78
2022/09/15 04:18:51;;;;;;;1.90;1.80;;;11.40;99.90;;;;;;5021081;28;20042;-77
2022/09/15 04:21:19;;;;;;;3.72;2.13;;;11.50;99.90;;;;;;5019235;28;20487;-78
2022/09/15 04:23:46;;;;;;;2.03;1.70;;;11.60;99.90;;;;;;5029425;28;20030;-78
2022/09/15 04:26:23;;;;;;;3.20;1.92;;;11.80;99.90;;;;;;5018773;28;20469;-78
2022/09/15 04:28:48;;;;;;;2.53;1.48;;;12.00;99.90;;;;;;5020408;28;20033;-77
2022/09/15 04:31:16;;;;;;;2.35;1.58;;;12.00;99.90;;;;;;5018382;28;20030;-77
2022/09/15 04:33:43;;;;;;;6.45;2.08;;;11.90;99.90;;;;;;5026219;28;20033;-77
2022/09/15 04:36:11;;;;;;;2.15;1.30;;;11.70;99.90;;;;;;5024158;28;20030;-77
2022/09/15 04:38:37;;;;;;;1.50;1.25;;;11.50;99.90;;;;;;5025845;28;20391;-77
2022/09/15 04:41:03;;;;;;;2.33;1.88;;;11.50;99.90;;;;;;5020996;28;20037;-77
2022/09/15 04:43:29;;;;;;;2.35;1.70;;;11.50;99.90;;;;;;5025250;28;20101;-77
2022/09/15 04:45:55;;;;;;;3.05;1.35;;;11.50;99.90;;;;;;5020256;28;20468;-77
2022/09/15 04:48:22;;;;;;;2.97;2.13;;;11.50;99.90;;;;;;5013455;28;20038;-78
2022/09/15 04:50:48;;;;;;;2.10;1.60;;;11.40;99.90;;;;;;5022769;28;20053;-77
2022/09/15 04:53:14;;;;;;;1.95;1.58;;;11.40;99.90;;;;;;5019294;28;20049;-77
2022/09/15 04:55:39;;;;;;;1.70;1.27;;;11.50;99.90;;;;;;5020194;28;20092;-77
2022/09/15 04:58:05;;;;;;;2.35;1.40;;;11.60;99.90;;;;;;5022116;28;20413;-77
2022/09/15 05:00:33;;;;;;;3.38;1.65;;;11.60;99.90;;;;;;5010262;28;20030;-77
2022/09/15 05:02:59;;;;;;;1.50;1.30;;;11.60;99.90;;;;;;5028353;28;20029;-77
2022/09/15 05:05:25;;;;;;;3.72;1.73;;;11.60;99.90;;;;;;5006217;28;20030;-77
2022/09/15 05:07:51;;;;;;;1.73;1.25;;;11.60;99.90;;;;;;5014154;28;20025;-77
2022/09/15 05:10:17;;;;;;;3.05;1.50;;;11.60;99.90;;;;;;5010181;28;20113;-77
2022/09/15 05:12:43;;;;;;;6.75;1.88;;;11.70;99.90;;;;;;5027653;28;20029;-77
2022/09/15 05:15:09;;;;;;;2.58;1.75;;;11.60;99.90;;;;;;5029661;28;20037;-77
2022/09/15 05:17:35;;;;;;;1.83;1.27;;;11.70;99.90;;;;;;5025797;28;20071;-77
2022/09/15 05:20:01;;;;;;;2.95;1.40;;;11.70;99.90;;;;;;4995513;28;20042;-76
2022/09/15 05:22:27;;;;;;;3.55;1.40;;;11.70;99.90;;;;;;5002201;28;20547;-77
2022/09/15 05:24:52;;;;;;;2.92;1.70;;;11.70;99.90;;;;;;4994249;28;20508;-77
2022/09/15 05:27:18;;;;;;;2.05;1.35;;;11.70;99.90;;;;;;5001996;28;20052;-77
2022/09/15 05:29:44;;;;;;;2.60;1.52;;;11.80;99.90;;;;;;4999414;28;20396;-80
2022/09/15 05:32:09;;;;;;;2.63;1.55;;;11.90;99.90;;;;;;4999178;28;20417;-77
2022/09/15 05:34:35;;;;;;;8.85;1.70;;;11.90;99.90;;;;;;5007108;28;20034;-78
2022/09/15 05:37:01;;;;;;;4.43;2.05;;;11.90;99.90;;;;;;4996013;28;20477;-79
2022/09/15 05:39:27;;;;;;;1.88;1.08;;;12.00;99.90;;;;;;5001471;28;20034;-79
2022/09/15 05:41:52;;;;;;;1.70;1.60;;;12.00;99.90;;;;;;5002867;28;20021;-79
2022/09/15 05:44:20;;;;;;;2.97;1.90;;;12.10;99.90;;;;;;5004027;28;20029;-78
2022/09/15 05:46:46;;;;;;;3.20;1.30;;;12.20;99.90;;;;;;5002050;28;20053;-78
2022/09/15 05:49:12;;;;;;;3.78;1.15;;;12.30;99.90;;;;;;5003035;28;20026;-77
2022/09/15 05:51:37;;;;;;;3.78;1.88;;;12.50;99.90;;;;;;5005595;28;20034;-79
2022/09/15 05:54:03;;;;;;;1.75;1.52;;;12.80;99.90;;;;;;5001504;28;20065;-79
2022/09/15 05:56:28;;;;;;;4.35;1.77;;;13.00;99.90;;;;;;5001863;28;21353;-78
2022/09/15 05:58:54;;;;;;;8.20;2.40;;;13.00;99.90;;;;;;5003219;28;20018;-77
2022/09/15 06:01:29;;;;;;;2.83;1.58;;;13.10;99.90;;;;;;5004306;28;20025;-78
2022/09/15 06:03:56;;;;;;;2.28;1.80;;;13.20;99.90;;;;;;5007037;28;20489;-91
2022/09/15 06:06:23;;;;;;;1.63;1.20;;;13.20;99.90;;;;;;5005592;28;20034;-78
2022/09/15 06:08:54;;;;;;;1.92;1.42;;;13.20;99.90;;;;;;5000113;28;20552;-78
2022/09/15 06:11:22;;;;;;;1.43;1.27;;;13.10;99.90;;;;;;5002679;28;20484;-77
2022/09/15 06:13:48;;;;;;;2.30;1.40;;;13.00;99.90;;;;;;5004014;28;20886;-78
2022/09/15 06:16:19;;;;;;;2.22;1.20;;;13.00;99.90;;;;;;5004780;28;20031;-77
2022/09/15 06:18:46;;;;;;;;;;;13.10;99.90;;;;;;5021051;28;20454;-78
2022/09/15 06:21:17;;;;;;;6.30;2.78;;;13.20;99.90;;;;;;5032919;28;19917;-78
2022/09/15 06:23:43;;;;;;;;;;;13.40;99.90;;;;;;5031248;28;20781;-78
2022/09/15 06:26:13;;;;;;;3.90;1.67;;;13.60;99.90;;;;;;5027249;28;19959;-77
2022/09/15 06:28:41;;;;;;;4.55;1.58;;;13.80;99.90;;;;;;5029228;28;20064;-78
2022/09/15 06:31:11;;;;;;;2.60;2.13;;;13.90;99.90;;;;;;5029468;28;20021;-77
2022/09/15 06:33:42;;;;;;;3.00;1.52;;;13.90;99.90;;;;;;5027688;28;20041;-77
2022/09/15 06:36:10;;;;;;;2.33;1.77;;;14.00;99.90;;;;;;5027356;28;20030;-77
2022/09/15 06:38:35;;;;;;;2.85;1.55;;;14.00;99.90;;;;;;5032178;28;20076;-78
2022/09/15 06:41:01;;;;;;;1.73;1.30;;;14.00;99.90;;;;;;5028837;28;20456;-77
2022/09/15 06:43:26;;;;;;;1.20;1.10;;;14.20;99.90;;;;;;5029756;28;20124;-76
2022/09/15 06:45:52;;;;;;;3.13;1.60;;;14.20;99.90;;;;;;5015612;28;20021;-77
2022/09/15 06:48:18;;;;;;;1.33;1.15;;;14.20;99.90;;;;;;5020125;28;20384;-77
2022/09/15 06:50:43;;;;;;;2.88;1.60;;;14.30;99.90;;;;;;5026727;28;20041;-78
2022/09/15 06:53:09;;;;;;;1.80;1.30;;;14.30;99.90;;;;;;5022871;28;20400;-78
2022/09/15 06:55:35;;;;;;;2.95;1.58;;;14.30;99.90;;;;;;5025217;28;20037;-76
2022/09/15 06:58:00;;;;;;;1.70;1.10;;;14.50;99.90;;;;;;5016429;28;20022;-77
2022/09/15 07:00:26;;;;;;;1.40;1.13;;;14.50;99.90;;;;;;5011554;28;20769;-77
2022/09/15 07:02:52;;;;;;;11.45;1.55;;;14.50;99.90;;;;;;5030761;28;20037;-77
2022/09/15 07:05:17;;;;;;;1.73;1.33;;;14.60;99.90;;;;;;5034468;28;20550;-86
2022/09/15 07:07:43;;;;;;;1.67;1.10;;;14.60;99.90;;;;;;5033364;28;20422;-78
2022/09/15 07:10:09;;;;;;;2.95;1.23;;;14.60;99.90;;;;;;5031711;28;20035;-77
2022/09/15 07:12:34;;;;;;;1.27;0.90;;;14.60;99.90;;;;;;5029949;28;20070;-77
2022/09/15 07:15:00;;;;;;;1.83;1.10;;;14.50;99.90;;;;;;5031602;28;20036;-78
2022/09/15 07:17:26;;;;;;;1.50;1.40;;;14.60;99.90;;;;;;5029749;28;20018;-77
2022/09/15 07:19:51;;;;;;;2.67;1.95;;;14.60;99.90;;;;;;5029840;28;20049;-77
2022/09/15 07:22:17;;;;;;;2.00;1.55;;;14.60;99.90;;;;;;5031338;28;20090;-82
2022/09/15 07:24:42;;;;;;;1.30;1.20;;;14.60;99.90;;;;;;5032087;28;20295;-79
2022/09/15 07:27:08;;;;;;;2.85;1.70;;;14.80;99.90;;;;;;5015271;28;20025;-78
2022/09/15 07:29:34;;;;;;;3.78;2.00;;;14.60;99.90;;;;;;5033175;28;20031;-78
2022/09/15 07:31:59;;;;;;;2.33;1.70;;;14.80;99.90;;;;;;5019665;28;20017;-80
2022/09/15 07:34:25;;;;;;;5.25;1.75;;;14.70;99.90;;;;;;5017066;28;20038;-78
2022/09/15 07:36:50;;;;;;;1.75;1.45;;;14.80;99.90;;;;;;5021246;28;20028;-78
2022/09/15 07:39:16;;;;;;;1.85;1.30;;;14.80;99.90;;;;;;5018160;28;20025;-79
2022/09/15 07:41:41;;;;;;;2.17;1.55;;;14.70;99.90;;;;;;5026926;28;20033;-79
2022/09/15 07:44:10;;;;;;;3.13;1.35;;;15.00;99.90;;;;;;5015220;28;20263;-80
2022/09/15 07:46:36;;;;;;;1.48;1.17;;;15.00;99.90;;;;;;5018994;28;20098;-79
2022/09/15 07:49:02;;;;;;;1.30;1.13;;;15.40;99.90;;;;;;5028031;28;20507;-76
2022/09/15 07:51:27;;;;;;;3.17;1.60;;;15.40;99.90;;;;;;5029292;28;20025;-80
2022/09/15 07:53:53;;;;;;;1.98;1.23;;;15.40;99.90;;;;;;5030006;28;20032;-77
2022/09/15 07:56:22;;;;;;;6.60;1.38;;;15.30;99.90;;;;;;5024492;28;20033;-78
2022/09/15 07:58:48;;;;;;;1.27;1.10;;;15.40;99.90;;;;;;5027618;28;20060;-78
2022/09/15 08:01:19;;;;;;;3.33;1.63;;;15.50;99.90;;;;;;5030666;28;21172;-78
2022/09/15 08:03:47;;;;;;;3.08;1.15;;;15.40;99.90;;;;;;5010384;28;20017;-77
2022/09/15 08:06:14;;;;;;;2.35;1.65;;;15.50;99.90;;;;;;5028141;28;20117;-77
2022/09/15 08:08:42;;;;;;;1.95;1.35;;;15.60;99.90;;;;;;5025436;28;20461;-78
2022/09/15 08:11:13;;;;;;;3.30;1.40;;;15.30;99.90;;;;;;5027841;28;20064;-78
2022/09/15 08:13:38;;;;;;;2.80;1.40;;;15.60;99.90;;;;;;5032427;28;20404;-77
2022/09/15 08:16:07;;;;;;;2.80;1.30;;;15.70;99.90;;;;;;5033052;28;20038;-78
2022/09/15 08:18:32;;;;;;;2.17;1.10;;;15.90;99.90;;;;;;5031495;28;20072;-77
2022/09/15 08:21:05;;;;;;;0.90;0.90;;;15.90;99.90;;;;;;5031532;28;20460;-78
2022/09/15 08:23:31;;;;;;;0.98;0.93;;;16.20;99.90;;;;;;5013995;28;20026;-77
2022/09/15 08:25:56;;;;;;;3.05;1.30;;;16.60;99.90;;;;;;5015428;28;20021;-76
2022/09/15 08:28:22;;;;;;;1.73;1.20;;;16.70;99.90;;;;;;5014688;28;20030;-78
2022/09/15 08:30:47;;;;;;;1.75;1.00;;;16.70;99.90;;;;;;5012784;28;20022;-76
2022/09/15 08:33:13;;;;;;;3.83;1.08;;;16.20;99.90;;;;;;5025949;28;20089;-77
2022/09/15 08:35:38;;;;;;;1.00;0.90;;;16.20;99.90;;;;;;5021479;28;20574;-77
2022/09/15 08:38:04;;;;;;;1.00;0.85;;;16.20;99.90;;;;;;5013124;28;20104;-77
2022/09/15 08:40:36;;;;;;;1.60;1.20;;;16.10;99.90;;;;;;5009669;28;20065;-76
2022/09/15 08:43:17;;;;;;;1.45;0.90;;;16.30;99.90;;;;;;5014708;28;20025;-76
2022/09/15 08:45:57;;;;;;;1.17;0.88;;;16.20;99.90;;;;;;5009555;28;20033;-78
2022/09/15 08:48:28;;;;;;;5.60;1.20;;;16.40;99.90;;;;;;5018288;28;20021;-76
2022/09/15 08:50:56;;;;;;;1.27;1.10;;;16.40;99.90;;;;;;5022780;28;20483;-77
2022/09/15 08:53:34;;;;;;;0.82;0.82;;;16.20;99.90;;;;;;5020059;28;20436;-77
2022/09/15 08:56:06;;;;;;;1.58;0.80;;;16.10;99.90;;;;;;5026461;28;20065;-77
2022/09/15 08:58:36;;;;;;;6.10;1.30;;;16.30;99.90;;;;;;5018329;28;20133;-76
2022/09/15 09:01:20;;;;;;;1.17;0.93;;;16.40;99.90;;;;;;5030646;28;20108;-76
2022/09/15 09:03:51;;;;;;;0.88;0.80;;;16.50;99.90;;;;;;5030044;28;20080;-77
2022/09/15 09:06:52;;;;;;;2.00;1.00;;;16.60;99.90;;;;;;5030427;28;20036;-76
2022/09/15 09:09:33;;;;;;;1.17;1.00;;;16.90;99.90;;;;;;5028300;28;20026;-76
2022/09/15 09:12:04;;;;;;;3.38;1.10;;;17.10;99.90;;;;;;5010951;28;20346;-77
2022/09/15 09:14:41;;;;;;;2.42;1.15;;;17.10;99.90;;;;;;5013626;28;20017;-76
2022/09/15 09:17:30;;;;;;;0.95;0.82;;;17.20;99.90;;;;;;5029332;28;20025;-76
2022/09/15 09:20:07;;;;;;;1.40;1.20;;;17.40;99.90;;;;;;5010670;28;20042;-76
2022/09/15 09:22:37;;;;;;;1.70;1.00;;;17.10;99.90;;;;;;5032345;28;20080;-76
2022/09/15 09:25:04;;;;;;;0.80;0.80;;;17.10;99.90;;;;;;5010430;28;20018;-76
2022/09/15 09:27:33;;;;;;;1.20;0.95;;;16.80;99.90;;;;;;5012362;28;20368;-76
2022/09/15 09:30:19;;;;;;;1.20;0.93;;;16.80;99.90;;;;;;5018214;28;20113;-76
2022/09/15 09:33:12;;;;;;;1.00;0.95;;;17.20;99.90;;;;;;5012883;28;20100;-77
2022/09/15 09:35:42;;;;;;;2.28;0.90;;;17.60;99.90;;;;;;5020563;28;20631;-77
2022/09/15 09:38:09;;;;;;;2.60;0.95;;;17.90;99.90;;;;;;5023338;28;20018;-77
2022/09/15 09:40:38;;;;;;;2.00;0.95;;;17.70;99.90;;;;;;5028065;28;20056;-76
2022/09/15 09:43:04;;;;;;;1.38;0.80;;;17.50;99.90;;;;;;5007366;28;20022;-77
2022/09/15 09:45:29;;;;;;;0.60;0.60;;;17.70;99.90;;;;;;5020026;28;20073;-76
2022/09/15 09:48:10;;;;;;;1.55;1.17;;;18.00;99.90;;;;;;5008019;28;20471;-77
2022/09/15 09:50:42;;;;;;;0.55;0.55;;;17.70;99.90;;;;;;5017524;28;20036;-77
2022/09/15 09:53:35;;;;;;;2.05;1.60;;;18.00;99.90;;;;;;5028803;28;20025;-77
2022/09/15 09:56:36;;;;;;;1.70;0.77;;;18.60;99.90;;;;;;5026354;28;20120;-77
2022/09/15 09:59:02;;;;;;;0.67;0.67;;;20.60;96.10;;;;;;4947530;29;20058;-77
2022/09/15 10:01:28;;;;;;;1.50;1.27;;;20.50;93.10;;;;;;4996132;28;20363;-77
2022/09/15 10:04:21;;;;;;;1.45;0.80;;;19.40;94.40;;;;;;5009578;28;20033;-77
2022/09/15 10:06:48;;;;;;;1.27;1.15;;;20.10;91.90;;;;;;5014436;28;20278;-77
2022/09/15 10:09:17;;;;;;;2.35;1.02;;;19.20;94.40;;;;;;5028971;28;20060;-77
2022/09/15 10:11:49;;;;;;;0.80;0.55;;;18.80;96.00;;;;;;5028985;28;20408;-77
2022/09/15 10:14:19;;;;;;;0.93;0.60;;;18.00;96.60;;;;;;5028940;28;20111;-77
2022/09/15 10:17:03;;;;;;;0.45;0.32;;;17.90;96.10;;;;;;5027571;28;20033;-77
2022/09/15 10:19:32;;;;;;;0.50;0.50;;;18.10;95.10;;;;;;5010522;28;20095;-78
2022/09/15 10:21:58;;;;;;;1.05;0.52;;;18.00;94.90;;;;;;5008951;28;20033;-77
2022/09/15 10:24:31;;;;;;;3.45;0.80;;;19.00;93.90;;;;;;4990721;28;20504;-76
2022/09/15 10:27:23;;;;;;;4.82;0.73;;;20.50;87.10;;;;;;4989662;28;20041;-77
2022/09/15 10:29:49;;;;;;;0.60;0.52;;;20.70;84.20;;;;;;4998665;28;20443;-77
2022/09/15 10:32:19;;;;;;;0.40;0.40;;;23.10;76.40;;;;;;5008865;28;20026;-76
2022/09/15 10:34:47;;;;;;;0.50;0.50;;;25.50;60.50;;;;;;4999759;28;20064;-77
2022/09/15 10:37:41;;;;;;;0.35;0.35;;;22.50;68.60;;;;;;5008727;28;20085;-77
2022/09/15 10:40:19;;;;;;;1.08;0.60;;;21.30;71.90;;;;;;5008309;28;20025;-78
2022/09/15 10:42:55;;;;;;;2.47;0.35;;;21.00;73.20;;;;;;5008545;28;20566;-76
2022/09/15 10:45:31;;;;;;;0.60;0.55;;;20.10;78.00;;;;;;5008569;28;20026;-76
2022/09/15 10:48:24;;;;;;;0.63;0.40;;;20.30;79.70;;;;;;5008680;28;20018;-77
2022/09/15 10:51:34;;;;;;;5.95;1.23;;;19.60;80.10;;;;;;5006969;28;20045;-77
2022/09/15 10:54:05;;;;;;;1.10;0.90;;;21.00;75.80;;;;;;5008839;28;20105;-77
2022/09/15 10:56:33;;;;;;;;;;;20.40;74.50;;;;;;5008296;28;20396;-77
2022/09/15 10:59:20;;;;;;;0.90;0.77;;;20.50;73.20;;;;;;5008749;28;19910;-77
2022/09/15 11:02:04;;;;;;;1.08;0.75;;;20.70;72.80;;;;;;5007933;28;20100;-77
2022/09/15 11:05:03;;;;;;;3.70;0.77;;;21.30;69.60;;;;;;5008008;28;20053;-77
2022/09/15 11:08:09;;;;;;;0.50;0.40;;;22.40;66.80;;;;;;5000452;28;20022;-77
2022/09/15 11:10:59;;;;;;;0.52;0.45;;;22.10;67.50;;;;;;4998541;28;20064;-76
2022/09/15 11:13:46;;;;;;;4.38;0.82;;;21.20;68.40;;;;;;5008079;28;20536;-77
2022/09/15 11:16:36;;;;;;;2.17;0.70;;;21.50;69.60;;;;;;5007783;28;20030;-77
2022/09/15 11:19:40;;;;;;;0.70;0.50;;;22.50;67.40;;;;;;5007206;28;20505;-78
2022/09/15 11:22:14;;;;;;;1.25;0.47;;;22.40;65.10;;;;;;5007780;28;20459;-76
2022/09/15 11:25:01;;;;;;;1.40;0.57;;;21.90;68.80;;;;;;4995633;28;20034;-77
2022/09/15 11:27:34;;;;;;;1.63;1.30;;;21.40;70.30;;;;;;5007685;28;20053;-78
2022/09/15 11:30:20;;;;;;;0.40;0.40;;;20.60;72.80;;;;;;5006950;28;20029;-77
2022/09/15 11:33:18;;;;;;;1.55;0.80;;;20.30;73.90;;;;;;5007444;28;20707;-78
2022/09/15 11:35:50;;;;;;;1.50;0.73;;;19.80;76.90;;;;;;4985843;28;20120;-76
2022/09/15 11:38:30;;;;;;;1.35;0.80;;;19.70;79.60;;;;;;5007928;28;20081;-77
2022/09/15 11:41:35;;;;;;;2.97;0.57;;;19.30;80.50;;;;;;5008002;28;20022;-77
2022/09/15 11:44:15;;;;;;;0.22;0.22;;;18.90;79.80;;;;;;5007992;28;20017;-78
2022/09/15 11:47:03;;;;;;;0.43;0.43;;;19.00;81.70;;;;;;5006609;28;20033;-78
2022/09/15 11:49:38;;;;;;;0.93;0.45;;;18.60;80.90;;;;;;5007550;28;20034;-76
2022/09/15 11:52:27;;;;;;;0.38;0.32;;;18.40;84.20;;;;;;5007845;28;20030;-77
2022/09/15 11:55:34;;;;;;;0.32;0.32;;;18.00;84.40;;;;;;5007701;28;20113;-77
2022/09/15 11:58:19;;;;;;;1.25;0.57;;;17.60;86.20;;;;;;4944988;28;20035;-77
2022/09/15 12:01:09;;;;;;;1.95;1.23;;;17.70;88.30;;;;;;4996997;28;20059;-77
2022/09/15 12:03:46;;;;;;;2.53;0.98;;;17.70;88.60;;;;;;5007608;28;20439;-77
2022/09/15 12:06:19;;;;;;;2.10;0.77;;;18.20;87.30;;;;;;5007368;28;20049;-78
2022/09/15 12:08:59;;;;;;;0.30;0.30;;;18.50;86.40;;;;;;5007872;28;20033;-79
2022/09/15 12:11:29;;;;;;;0.97;0.90;;;18.90;85.80;;;;;;5007666;28;20034;-78
2022/09/15 12:13:55;;;;;;;0.73;0.30;;;20.10;81.40;;;;;;5007435;28;20283;-78
2022/09/15 12:16:21;;;;;;;1.67;0.60;;;21.20;78.10;;;;;;4998730;28;20498;-76
2022/09/15 12:19:18;;;;;;;0.93;0.45;;;22.10;71.40;;;;;;5006803;28;20095;-77
2022/09/15 12:22:01;;;;;;;1.30;0.63;;;22.70;67.70;;;;;;4983830;28;20053;-76
2022/09/15 12:24:32;;;;;;;0.80;0.40;;;26.30;59.90;;;;;;5006570;28;20310;-76
2022/09/15 12:26:59;;;;;;;;;;;24.90;60.10;;;;;;5001234;28;20133;-77
2022/09/15 12:29:24;;;;;;;1.08;0.88;;;24.60;61.20;;;;;;5009060;28;19909;-78
2022/09/15 12:32:29;;;;;;;1.65;0.60;;;27.00;55.90;;;;;;5010954;28;20083;-78
2022/09/15 12:35:02;;;;;;;0.63;0.43;;;27.40;52.00;;;;;;5011287;28;20030;-78
2022/09/15 12:37:35;;;;;;;1.23;0.77;;;28.50;49.60;;;;;;5010633;28;20033;-78
2022/09/15 12:40:04;;;;;;;0.40;0.40;;;28.30;49.50;;;;;;5010952;28;20034;-77
2022/09/15 12:42:31;;;;;;;0.52;0.40;;;27.90;48.30;;;;;;5010622;28;20053;-77
2022/09/15 12:45:04;;;;;;;0.88;0.68;;;24.80;54.30;;;;;;5010991;28;20026;-78
2022/09/15 12:47:30;;;;;;;3.15;0.60;;;24.60;55.50;;;;;;5010331;28;20091;-78
2022/09/15 12:50:00;;;;;;;1.70;0.90;;;23.00;58.60;;;;;;5010843;28;20112;-78
2022/09/15 12:52:27;;;;;;;2.10;0.60;;;21.50;63.70;;;;;;5010757;28;20033;-77
2022/09/15 12:55:00;;;;;;;1.02;0.70;;;20.40;69.50;;;;;;5010473;28;20060;-77
2022/09/15 12:57:31;;;;;;;1.65;0.70;;;19.60;72.80;;;;;;5010777;28;20034;-77
2022/09/15 13:00:15;;;;;;;2.42;0.77;;;18.90;75.10;;;;;;5009134;28;20073;-77
2022/09/15 13:02:44;;;;;;;0.40;0.40;;;19.20;74.50;;;;;;5010333;28;20492;-77
2022/09/15 13:05:11;;;;;;;1.77;0.57;;;20.90;69.70;;;;;;5009018;28;20038;-77
2022/09/15 13:07:55;;;;;;;4.07;0.60;;;23.80;61.00;;;;;;5008637;28;20034;-77
2022/09/15 13:10:32;;;;;;;4.80;0.77;;;27.10;53.80;;;;;;4993673;28;20489;-76
2022/09/15 13:13:13;;;;;;;0.32;0.30;;;28.20;49.50;;;;;;5002028;28;20038;-76
2022/09/15 13:15:43;;;;;;;2.30;0.70;;;29.80;48.00;;;;;;5003824;28;20046;-77